Lion — 3EZS4 — position and weather

sailwx.info

Track history (hours):
 
Tides and Currents Weather Stations Pressure Air Temp Water Temp Dewpoint Dewpoint Depression Visibility Wind Speed Wind Dir Waves Ship Positions

Lion

Last reported at 2017-Sep-21 15:20 UTC. Time now 2017-Sep-26 10:53 UTC.
Position N 34°58' E 030°33'.

Length 169 m; draft 9 m.

Type: Cargo ship. MMSI: 373019000.

Date/timePositionNaut miles runAvg speedWind from/ knotsBaromVisibWave heightAir tempDewpointWater temp
2017-Sep-21 15:20N 34°58' E 030°33'1110.2
2017-Sep-21 14:14N 34°54' E 030°46'2510.8
2017-Sep-21 11:54N 34°46' E 031°15'511.0
2017-Sep-21 11:28N 34°45' E 031°21'611.1
2017-Sep-21 10:57N 34°43' E 031°28'511.2
2017-Sep-21 10:31N 34°42' E 031°33'611.3
2017-Sep-21 09:58N 34°40' E 031°40'1311.3
2017-Sep-21 08:47N 34°36' E 031°56'311.4
2017-Sep-21 08:30N 34°35' E 031°59'2811.5
2017-Sep-21 06:04N 34°26' E 032°32'111.7
2017-Sep-21 06:01N 34°26' E 032°33'611.7
2017-Sep-21 05:30N 34°24' E 032°40'2111.4
2017-Sep-21 03:41N 34°17' E 033°03'7611.4
2017-Sep-20 21:01N 33°54' E 034°30'311.6
2017-Sep-20 20:46N 33°54' E 034°34'  
Track history (hours):
 
Tides and Currents Weather Stations Pressure Air Temp Water Temp Dewpoint Dewpoint Depression Visibility Wind Speed Wind Dir Waves Ship Positions

Lion

Last reported at 2017-Sep-21 15:20 UTC. Time now 2017-Sep-26 10:53 UTC.
Position N 34°58' E 030°33'.

Length 169 m; draft 9 m.

Type: Cargo ship. MMSI: 373019000.

Date/timePositionNaut miles runAvg speedWind from/ knotsBaromVisibWave heightAir tempDewpointWater temp
2017-Sep-21 15:20N 34°58' E 030°33'1110.2
2017-Sep-21 14:14N 34°54' E 030°46'2510.8
2017-Sep-21 11:54N 34°46' E 031°15'511.0
2017-Sep-21 11:28N 34°45' E 031°21'611.1
2017-Sep-21 10:57N 34°43' E 031°28'511.2
2017-Sep-21 10:31N 34°42' E 031°33'611.3
2017-Sep-21 09:58N 34°40' E 031°40'1311.3
2017-Sep-21 08:47N 34°36' E 031°56'311.4
2017-Sep-21 08:30N 34°35' E 031°59'2811.5
2017-Sep-21 06:04N 34°26' E 032°32'111.7
2017-Sep-21 06:01N 34°26' E 032°33'611.7
2017-Sep-21 05:30N 34°24' E 032°40'2111.4
2017-Sep-21 03:41N 34°17' E 033°03'7611.4
2017-Sep-20 21:01N 33°54' E 034°30'311.6
2017-Sep-20 20:46N 33°54' E 034°34'  

Dump ship's entire track history